createdAt,value
2023-04-15T00:01:06.950Z,6.07
2023-04-15T00:03:41.509Z,5.63
2023-04-15T00:06:14.832Z,7.43
2023-04-15T00:08:48.036Z,5.27
2023-04-15T00:11:21.073Z,5.73
2023-04-15T00:13:54.429Z,6.07
2023-04-15T00:16:28.425Z,6.63
2023-04-15T00:19:03.043Z,6.00
2023-04-15T00:21:36.485Z,5.70
2023-04-15T00:24:09.498Z,5.33
2023-04-15T00:26:42.591Z,5.63
2023-04-15T00:29:15.687Z,5.47
2023-04-15T00:31:48.731Z,5.30
2023-04-15T00:34:23.226Z,5.90
2023-04-15T00:36:56.395Z,5.73
2023-04-15T00:39:29.658Z,5.63
2023-04-15T00:42:03.409Z,5.33
2023-04-15T00:44:36.420Z,6.00
2023-04-15T00:47:10.154Z,6.57
2023-04-15T00:49:44.528Z,6.20
2023-04-15T00:52:17.532Z,6.30
2023-04-15T00:54:51.262Z,5.93
2023-04-15T00:57:24.452Z,6.67
2023-04-15T00:59:58.369Z,5.57
2023-04-15T01:02:33.460Z,5.87
2023-04-15T01:05:08.757Z,5.50
2023-04-15T01:07:41.788Z,6.30
2023-04-15T01:10:14.894Z,6.87
2023-04-15T01:12:48.035Z,5.53
2023-04-15T01:15:21.926Z,5.90
2023-04-15T01:17:55.245Z,5.40
2023-04-15T01:20:30.829Z,5.57
2023-04-15T01:23:04.012Z,5.33
2023-04-15T01:25:38.409Z,6.37
2023-04-15T01:28:11.849Z,5.70
2023-04-15T01:30:44.838Z,5.93
2023-04-15T01:33:17.849Z,6.27
2023-04-15T01:35:50.940Z,5.70
2023-04-15T01:38:24.049Z,5.80
2023-04-15T01:40:59.264Z,5.40
2023-04-15T01:43:32.426Z,5.70
2023-04-15T01:46:06.194Z,6.10
2023-04-15T01:48:39.200Z,6.53
2023-04-15T01:51:12.297Z,5.77
2023-04-15T01:53:45.493Z,6.07
2023-04-15T01:56:19.868Z,5.60
2023-04-15T01:58:52.933Z,5.47
2023-04-15T02:01:25.998Z,5.73
2023-04-15T02:03:59.071Z,5.77
2023-04-15T02:06:32.132Z,5.63
2023-04-15T02:09:05.152Z,5.60
2023-04-15T02:11:39.556Z,5.00
2023-04-15T02:14:12.712Z,5.47
2023-04-15T02:16:45.810Z,5.87
2023-04-15T02:19:18.911Z,5.30
2023-04-15T02:21:51.932Z,5.80
2023-04-15T02:24:24.992Z,6.17
2023-04-15T02:26:59.414Z,5.33
2023-04-15T02:29:33.362Z,5.20
2023-04-15T02:32:07.257Z,5.13
2023-04-15T02:34:41.280Z,5.50
2023-04-15T02:37:16.046Z,5.37
2023-04-15T02:39:49.097Z,5.90
2023-04-15T02:42:23.514Z,5.83
2023-04-15T02:44:57.253Z,5.47
2023-04-15T02:47:30.321Z,6.27
2023-04-15T02:50:04.641Z,5.93
2023-04-15T02:52:37.634Z,6.67
2023-04-15T02:55:11.602Z,5.53
2023-04-15T02:57:46.123Z,5.60
2023-04-15T03:00:19.265Z,5.57
2023-04-15T03:02:56.534Z,6.23
2023-04-15T03:05:30.055Z,5.90
2023-04-15T03:08:03.182Z,5.90
2023-04-15T03:10:36.288Z,5.83
2023-04-15T03:13:10.741Z,5.67
2023-04-15T03:15:43.913Z,5.90
2023-04-15T03:18:16.960Z,7.93
2023-04-15T03:20:50.053Z,5.67
2023-04-15T03:23:23.064Z,5.97
2023-04-15T03:25:57.766Z,6.03
2023-04-15T03:28:32.729Z,5.80
2023-04-15T03:31:05.922Z,5.93
2023-04-15T03:33:38.973Z,6.60
2023-04-15T03:36:12.134Z,6.23
2023-04-15T03:38:45.166Z,5.63
2023-04-15T03:41:18.209Z,5.27
2023-04-15T03:43:52.810Z,5.83
2023-04-15T03:46:25.856Z,6.07
2023-04-15T03:48:59.973Z,5.20
2023-04-15T03:51:33.278Z,5.83
2023-04-15T03:54:06.356Z,6.03
2023-04-15T03:56:39.502Z,6.13
2023-04-15T03:59:13.896Z,6.60
2023-04-15T04:01:47.028Z,6.50
2023-04-15T04:04:20.212Z,6.07
2023-04-15T04:06:53.559Z,6.97
2023-04-15T04:09:26.783Z,6.37
2023-04-15T04:11:59.955Z,6.40
2023-04-15T04:14:34.327Z,6.20
2023-04-15T04:17:07.490Z,6.47
2023-04-15T04:19:40.960Z,5.87
2023-04-15T04:22:13.997Z,6.27
2023-04-15T04:24:46.999Z,6.23
2023-04-15T04:27:20.017Z,6.47
2023-04-15T04:29:54.345Z,6.70
2023-04-15T04:32:27.438Z,6.93
2023-04-15T04:35:00.583Z,6.77
2023-04-15T04:37:33.673Z,6.80
2023-04-15T04:40:09.498Z,6.47
2023-04-15T04:42:42.550Z,6.67
2023-04-15T04:45:16.956Z,6.33
2023-04-15T04:47:50.048Z,6.47
2023-04-15T04:50:23.119Z,6.90
2023-04-15T04:52:56.440Z,6.30
2023-04-15T04:55:29.757Z,6.17
2023-04-15T04:58:02.746Z,6.57
2023-04-15T05:00:37.964Z,6.20
2023-04-15T05:03:11.160Z,6.17
2023-04-15T05:05:45.852Z,6.33
2023-04-15T05:08:18.900Z,6.03
2023-04-15T05:10:51.976Z,6.23
2023-04-15T05:13:25.054Z,6.10
2023-04-15T05:15:59.916Z,5.90
2023-04-15T05:18:33.096Z,6.40
2023-04-15T05:21:07.704Z,6.00
2023-04-15T05:23:41.270Z,6.00
2023-04-15T05:26:14.325Z,6.97
2023-04-15T05:28:47.887Z,7.40
2023-04-15T05:31:22.551Z,6.80
2023-04-15T05:33:55.745Z,7.67
2023-04-15T05:36:28.810Z,7.13
2023-04-15T05:39:02.036Z,7.20
2023-04-15T05:41:35.301Z,7.83
2023-04-15T05:44:08.395Z,7.27
2023-04-15T05:46:43.342Z,7.43
2023-04-15T05:49:16.487Z,7.93
2023-04-15T05:51:49.777Z,7.90
2023-04-15T05:54:23.184Z,6.87
2023-04-15T05:56:57.560Z,7.63
2023-04-15T05:59:31.055Z,8.10
2023-04-15T06:02:06.371Z,7.40
2023-04-15T06:04:39.683Z,7.80
2023-04-15T06:07:12.800Z,7.20
2023-04-15T06:09:45.907Z,6.30
2023-04-15T06:12:18.971Z,6.67
2023-04-15T06:14:52.200Z,7.23
2023-04-15T06:17:26.733Z,7.17
2023-04-15T06:20:00.037Z,7.57
2023-04-15T06:22:33.083Z,6.07
2023-04-15T06:25:09.388Z,6.20
2023-04-15T06:27:42.660Z,6.13
2023-04-15T06:30:15.707Z,6.03
2023-04-15T06:32:50.217Z,5.63
2023-04-15T06:35:23.352Z,5.53
2023-04-15T06:37:56.730Z,5.90
2023-04-15T06:40:29.868Z,5.60
2023-04-15T06:43:03.019Z,6.17
2023-04-15T06:45:36.285Z,5.60
2023-04-15T06:48:10.705Z,7.33
2023-04-15T06:50:43.892Z,7.65
2023-04-15T06:53:17.387Z,7.13
2023-04-15T06:55:50.473Z,8.13
2023-04-15T06:58:23.507Z,6.28
2023-04-15T07:00:57.360Z,5.88
2023-04-15T07:03:32.880Z,6.50
2023-04-15T07:06:06.862Z,6.88
2023-04-15T07:08:39.920Z,5.75
2023-04-15T07:11:13.134Z,6.88
2023-04-15T07:13:46.616Z,5.75
2023-04-15T07:16:19.972Z,8.65
2023-04-15T07:18:54.321Z,6.22
2023-04-15T07:21:27.690Z,5.70
2023-04-15T07:24:00.890Z,6.57
2023-04-15T07:26:33.914Z,6.25
2023-04-15T07:29:07.174Z,5.38
2023-04-15T07:31:42.218Z,5.35
2023-04-15T07:34:17.140Z,5.15
2023-04-15T07:36:50.625Z,5.32
2023-04-15T07:39:23.690Z,5.55
2023-04-15T07:41:56.934Z,5.50
2023-04-15T07:44:30.026Z,6.70
2023-04-15T07:47:04.156Z,4.97
2023-04-15T07:49:38.549Z,6.10
2023-04-15T07:52:11.572Z,6.50
2023-04-15T07:54:44.757Z,5.28
2023-04-15T07:57:18.438Z,6.82
2023-04-15T07:59:51.421Z,4.50
2023-04-15T08:02:24.564Z,7.53
2023-04-15T08:04:59.745Z,5.40
2023-04-15T08:07:33.012Z,5.95
2023-04-15T08:10:07.214Z,5.03
2023-04-15T08:12:40.609Z,5.10
2023-04-15T08:15:14.096Z,5.50
2023-04-15T08:17:47.330Z,4.38
2023-04-15T08:20:21.898Z,4.32
2023-04-15T08:22:55.040Z,6.72
2023-04-15T08:25:28.308Z,4.78
2023-04-15T08:28:07.114Z,4.40
2023-04-15T08:30:40.209Z,5.32
2023-04-15T08:33:13.276Z,6.15
2023-04-15T08:35:48.162Z,4.18
2023-04-15T08:38:21.201Z,4.20
2023-04-15T08:40:54.287Z,6.03
2023-04-15T08:43:30.671Z,5.10
2023-04-15T08:46:05.712Z,4.22
2023-04-15T08:48:40.635Z,4.75
2023-04-15T08:51:16.335Z,7.07
2023-04-15T08:53:50.882Z,3.72
2023-04-15T08:56:27.663Z,5.05
2023-04-15T08:59:01.168Z,3.78
2023-04-15T09:01:34.568Z,4.30
2023-04-15T09:04:08.326Z,6.07
2023-04-15T09:06:42.806Z,3.50
2023-04-15T09:09:15.890Z,4.50
2023-04-15T09:11:49.980Z,5.10
2023-04-15T09:14:23.066Z,4.68
2023-04-15T09:17:00.845Z,3.97
2023-04-15T09:19:34.661Z,3.53
2023-04-15T09:22:09.117Z,7.70
2023-04-15T09:24:43.407Z,5.20
2023-04-15T09:27:17.826Z,4.72
2023-04-15T09:29:51.801Z,5.35
2023-04-15T09:32:25.026Z,3.42
2023-04-15T09:34:58.093Z,5.85
2023-04-15T09:37:37.765Z,6.65
2023-04-15T09:40:12.037Z,5.60
2023-04-15T09:42:57.569Z,4.10
2023-04-15T09:45:31.001Z,3.13
2023-04-15T09:48:18.760Z,3.58
2023-04-15T09:50:53.915Z,4.93
2023-04-15T09:53:31.607Z,5.30
2023-04-15T09:56:07.849Z,9.63
2023-04-15T09:58:42.514Z,4.13
2023-04-15T10:01:15.607Z,11.43
2023-04-15T10:03:49.021Z,5.72
2023-04-15T10:06:23.192Z,2.88
2023-04-15T10:08:58.439Z,3.58
2023-04-15T10:11:32.857Z,5.70
2023-04-15T10:14:07.352Z,20.30
2023-04-15T10:16:43.464Z,6.20
2023-04-15T10:19:17.704Z,3.83
2023-04-15T10:21:52.051Z,5.72
2023-04-15T10:24:27.082Z,4.32
2023-04-15T10:27:01.249Z,4.50
2023-04-15T10:29:34.310Z,4.50
2023-04-15T10:32:07.852Z,3.45
2023-04-15T10:34:41.744Z,4.32
2023-04-15T10:37:14.803Z,3.78
2023-04-15T10:39:49.375Z,3.85
2023-04-15T10:42:22.626Z,6.40
2023-04-15T10:44:58.437Z,4.63
2023-04-15T10:47:33.926Z,5.40
2023-04-15T10:50:08.590Z,3.88
2023-04-15T10:52:42.712Z,3.97
2023-04-15T10:55:22.265Z,5.63
2023-04-15T10:58:00.800Z,5.05
2023-04-15T11:00:35.675Z,5.53
2023-04-15T11:03:10.637Z,5.07
2023-04-15T11:05:52.433Z,4.55
2023-04-15T11:08:58.857Z,5.93
2023-04-15T11:12:08.841Z,4.95
2023-04-15T11:14:43.307Z,4.72
2023-04-15T11:17:16.487Z,4.70
2023-04-15T11:19:49.552Z,4.90
2023-04-15T11:22:22.805Z,5.60
2023-04-15T11:24:55.845Z,5.25
2023-04-15T11:27:32.626Z,5.72
2023-04-15T11:30:21.187Z,4.82
2023-04-15T11:32:56.792Z,4.95
2023-04-15T11:35:30.587Z,5.65
2023-04-15T11:38:05.316Z,4.93
2023-04-15T11:40:39.833Z,5.80
2023-04-15T11:43:17.087Z,5.45
2023-04-15T11:45:55.589Z,4.90
2023-04-15T11:48:31.733Z,5.60
2023-04-15T11:51:06.517Z,6.30
2023-04-15T11:53:43.066Z,5.13
2023-04-15T11:56:20.212Z,5.05
2023-04-15T11:58:57.326Z,5.80
2023-04-15T12:01:35.082Z,5.53
2023-04-15T12:04:13.767Z,5.10
2023-04-15T12:06:47.454Z,5.00
2023-04-15T12:09:21.072Z,5.50
2023-04-15T12:11:58.801Z,4.90
2023-04-15T12:14:34.640Z,4.97
2023-04-15T12:17:08.082Z,4.70
2023-04-15T12:19:43.171Z,4.30
2023-04-15T12:22:17.943Z,4.80
2023-04-15T12:24:57.765Z,4.38
2023-04-15T12:27:32.405Z,4.60
2023-04-15T12:30:08.948Z,4.90
2023-04-15T12:32:43.531Z,4.03
2023-04-15T12:35:16.842Z,4.55
2023-04-15T12:37:49.828Z,3.42
2023-04-15T12:40:22.892Z,4.40
2023-04-15T12:42:56.542Z,3.63
2023-04-15T12:45:31.700Z,2.83
2023-04-15T12:48:04.849Z,3.47
2023-04-15T12:50:37.898Z,3.80
2023-04-15T12:53:11.003Z,2.95
2023-04-15T12:55:44.053Z,4.47
2023-04-15T12:58:17.065Z,3.30
2023-04-15T13:00:52.806Z,3.28
2023-04-15T13:03:25.987Z,3.22
2023-04-15T13:05:59.209Z,3.22
2023-04-15T13:08:32.254Z,3.40
2023-04-15T13:11:05.931Z,3.97
2023-04-15T13:13:38.986Z,3.35
2023-04-15T13:16:13.440Z,4.00
2023-04-15T13:18:47.021Z,3.70
2023-04-15T13:21:20.817Z,4.10
2023-04-15T13:23:54.039Z,3.20
2023-04-15T13:26:27.214Z,3.45
2023-04-15T13:29:01.936Z,3.15
2023-04-15T13:31:36.495Z,2.55
2023-04-15T13:34:09.644Z,3.05
2023-04-15T13:36:42.693Z,3.15
2023-04-15T13:39:15.679Z,2.15
2023-04-15T13:41:49.326Z,2.00
2023-04-15T13:44:22.436Z,2.33
2023-04-15T13:46:56.800Z,1.95
2023-04-15T13:49:30.505Z,1.90
2023-04-15T13:52:03.571Z,2.28
2023-04-15T13:54:37.925Z,2.20
2023-04-15T13:57:11.280Z,6.18
2023-04-15T13:59:45.031Z,3.65
2023-04-15T14:02:19.439Z,2.20
2023-04-15T14:04:52.525Z,1.73
2023-04-15T14:07:25.803Z,2.10
2023-04-15T14:09:58.829Z,1.63
2023-04-15T14:12:31.901Z,1.77
2023-04-15T14:15:06.003Z,1.65
2023-04-15T14:17:42.321Z,1.67
2023-04-15T14:20:17.156Z,2.25
2023-04-15T14:22:50.438Z,2.17
2023-04-15T14:25:33.325Z,1.60
2023-04-15T14:28:07.028Z,1.80
2023-04-15T14:30:40.086Z,1.88
2023-04-15T14:33:14.490Z,1.90
2023-04-15T14:35:47.601Z,1.95
2023-04-15T14:38:22.638Z,1.98
2023-04-15T14:40:55.758Z,1.67
2023-04-15T14:43:28.813Z,1.90
2023-04-15T14:46:02.188Z,2.22
2023-04-15T14:48:36.763Z,1.80
2023-04-15T14:51:09.949Z,2.63
2023-04-15T14:53:43.069Z,3.15
2023-04-15T14:56:16.229Z,3.53
2023-04-15T14:58:49.400Z,5.72
2023-04-15T15:01:22.619Z,4.13
2023-04-15T15:03:57.267Z,2.85
2023-04-15T15:06:30.338Z,2.58
2023-04-15T15:09:03.758Z,2.00
2023-04-15T15:11:37.047Z,2.30
2023-04-15T15:14:10.304Z,2.83
2023-04-15T15:16:43.414Z,2.22
2023-04-15T15:19:17.879Z,2.50
2023-04-15T15:21:50.908Z,2.13
2023-04-15T15:24:23.983Z,1.85
2023-04-15T15:26:57.141Z,2.30
2023-04-15T15:29:30.330Z,1.90
2023-04-15T15:32:03.319Z,1.85
2023-04-15T15:34:37.714Z,2.13
2023-04-15T15:37:10.772Z,2.22
2023-04-15T15:39:43.784Z,2.08
2023-04-15T15:42:16.843Z,2.22
2023-04-15T15:44:52.810Z,2.70
2023-04-15T15:47:26.772Z,2.50
2023-04-15T15:50:02.696Z,2.72
2023-04-15T15:52:37.286Z,2.60
2023-04-15T15:55:10.675Z,2.30
2023-04-15T15:57:43.873Z,2.67
2023-04-15T16:00:17.372Z,2.38
2023-04-15T16:03:06.142Z,2.88
2023-04-15T16:05:41.392Z,2.33
2023-04-15T16:08:14.413Z,2.95
2023-04-15T16:10:47.567Z,4.10
2023-04-15T16:13:20.634Z,6.57
2023-04-15T16:15:53.635Z,6.40
2023-04-15T16:18:26.657Z,6.25
2023-04-15T16:21:01.147Z,9.60
2023-04-15T16:23:35.084Z,7.82
2023-04-15T16:26:08.134Z,6.20
2023-04-15T16:28:41.222Z,7.35
2023-04-15T16:31:14.304Z,7.60
2023-04-15T16:33:47.358Z,7.63
2023-04-15T16:36:21.794Z,7.50
2023-04-15T16:38:54.965Z,6.33
2023-04-15T16:41:27.985Z,5.60
2023-04-15T16:44:01.274Z,6.03
2023-04-15T16:46:34.347Z,7.23
2023-04-15T16:49:07.353Z,8.13
2023-04-15T16:51:41.753Z,9.13
2023-04-15T16:54:14.804Z,6.90
2023-04-15T16:56:47.889Z,5.47
2023-04-15T16:59:20.901Z,10.07
2023-04-15T17:01:54.904Z,9.10
2023-04-15T17:04:29.638Z,8.17
2023-04-15T17:07:04.828Z,6.10
2023-04-15T17:09:39.531Z,7.53
2023-04-15T17:12:12.600Z,8.70
2023-04-15T17:14:45.673Z,9.83
2023-04-15T17:17:20.662Z,8.60
2023-04-15T17:19:53.745Z,10.73
2023-04-15T17:22:29.074Z,12.67
2023-04-15T17:25:02.119Z,14.43
2023-04-15T17:27:35.235Z,15.73
2023-04-15T17:30:10.103Z,17.10
2023-04-15T17:32:43.277Z,26.77
2023-04-15T17:35:16.483Z,20.60
2023-04-15T17:37:50.904Z,24.10
2023-04-15T17:40:24.104Z,13.77
2023-04-15T17:42:57.411Z,8.87
2023-04-15T17:45:31.258Z,6.90
2023-04-15T17:48:04.551Z,7.30
2023-04-15T17:50:38.480Z,7.70
2023-04-15T17:53:12.875Z,7.10
2023-04-15T17:55:46.420Z,8.70
2023-04-15T17:58:19.503Z,9.33
2023-04-15T18:00:52.541Z,8.50
2023-04-15T18:03:26.303Z,9.30
2023-04-15T18:06:00.688Z,8.60
2023-04-15T18:08:35.131Z,7.90
2023-04-15T18:11:08.876Z,8.80
2023-04-15T18:13:43.583Z,7.90
2023-04-15T18:16:17.153Z,8.43
2023-04-15T18:18:50.247Z,8.13
2023-04-15T18:21:23.283Z,9.07
2023-04-15T18:23:57.664Z,10.80
2023-04-15T18:26:30.737Z,10.10
2023-04-15T18:29:03.841Z,12.33
2023-04-15T18:31:36.987Z,13.23
2023-04-15T18:34:10.165Z,9.17
2023-04-15T18:36:43.206Z,9.07
2023-04-15T18:39:17.678Z,9.37
2023-04-15T18:41:50.709Z,8.47
2023-04-15T18:44:23.944Z,8.00
2023-04-15T18:46:57.021Z,7.03
2023-04-15T18:49:30.911Z,7.97
2023-04-15T18:52:04.103Z,9.73
2023-04-15T18:54:38.911Z,10.10
2023-04-15T18:57:12.003Z,11.60
2023-04-15T18:59:45.149Z,7.63
2023-04-15T19:02:18.274Z,5.57
2023-04-15T19:04:51.388Z,5.37
2023-04-15T19:07:24.909Z,4.83
2023-04-15T19:09:59.329Z,5.13
2023-04-15T19:12:32.419Z,6.57
2023-04-15T19:15:06.249Z,5.20
2023-04-15T19:17:39.631Z,4.80
2023-04-15T19:20:13.084Z,5.00
2023-04-15T19:22:46.131Z,4.57
2023-04-15T19:25:20.731Z,4.60
2023-04-15T19:27:53.831Z,4.23
2023-04-15T19:30:26.981Z,4.17
2023-04-15T19:33:00.073Z,3.80
2023-04-15T19:35:33.303Z,3.80
2023-04-15T19:38:06.513Z,3.50
2023-04-15T19:40:40.876Z,3.33
2023-04-15T19:43:13.916Z,3.73
2023-04-15T19:45:49.303Z,3.53
2023-04-15T19:48:26.024Z,7.37
2023-04-15T19:50:59.841Z,6.10
2023-04-15T19:53:32.838Z,6.50
2023-04-15T19:56:07.424Z,7.40
2023-04-15T19:58:40.470Z,7.50
2023-04-15T20:01:13.832Z,5.73
2023-04-15T20:03:47.372Z,5.07
2023-04-15T20:06:21.451Z,4.50
2023-04-15T20:08:54.498Z,5.00
2023-04-15T20:12:05.109Z,4.77
2023-04-15T20:14:22.881Z,4.67
2023-04-15T20:16:56.145Z,4.47
2023-04-15T20:19:29.189Z,4.87
2023-04-15T20:22:02.327Z,5.73
2023-04-15T20:24:35.360Z,5.57
2023-04-15T20:27:09.761Z,6.23
2023-04-15T20:29:42.794Z,7.73
2023-04-15T20:32:15.817Z,10.63
2023-04-15T20:34:49.277Z,12.20
2023-04-15T20:37:22.421Z,11.30
2023-04-15T20:39:55.475Z,7.63
2023-04-15T20:42:33.481Z,10.17
2023-04-15T20:45:08.363Z,9.40
2023-04-15T20:47:41.558Z,7.70
2023-04-15T20:50:14.750Z,7.40
2023-04-15T20:52:47.826Z,6.60
2023-04-15T20:55:21.056Z,9.10
2023-04-15T20:57:56.959Z,6.70
2023-04-15T21:00:31.071Z,6.07
2023-04-15T21:03:05.106Z,6.00
2023-04-15T21:05:38.268Z,5.87
2023-04-15T21:08:11.756Z,5.77
2023-04-15T21:10:44.816Z,5.70
2023-04-15T21:13:19.185Z,5.93
2023-04-15T21:15:54.102Z,6.27
2023-04-15T21:18:27.260Z,6.00
2023-04-15T21:21:02.007Z,6.87
2023-04-15T21:23:36.016Z,7.20
2023-04-15T21:26:09.479Z,6.67
2023-04-15T21:28:43.863Z,7.43
2023-04-15T21:31:17.012Z,7.60
2023-04-15T21:33:50.076Z,8.00
2023-04-15T21:36:23.120Z,10.33
2023-04-15T21:38:56.136Z,8.83
2023-04-15T21:41:29.239Z,9.93
2023-04-15T21:44:03.917Z,9.70
2023-04-15T21:46:37.007Z,8.03
2023-04-15T21:49:12.352Z,8.80
2023-04-15T21:51:46.356Z,8.00
2023-04-15T21:54:19.496Z,8.27
2023-04-15T21:56:52.499Z,7.97
2023-04-15T21:59:27.220Z,8.97
2023-04-15T22:02:00.480Z,8.93
2023-04-15T22:04:33.571Z,10.40
2023-04-15T22:07:06.608Z,10.37
2023-04-15T22:09:39.648Z,9.20
2023-04-15T22:12:12.755Z,9.30
2023-04-15T22:14:47.172Z,9.93
2023-04-15T22:17:20.193Z,10.20
2023-04-15T22:19:53.205Z,11.53
2023-04-15T22:22:27.407Z,12.17
2023-04-15T22:25:16.877Z,11.93
2023-04-15T22:27:50.054Z,11.83
2023-04-15T22:30:24.822Z,11.97
2023-04-15T22:32:57.834Z,11.20
2023-04-15T22:35:30.845Z,11.20
2023-04-15T22:38:04.721Z,13.20
2023-04-15T22:40:37.790Z,12.00
2023-04-15T22:43:10.796Z,12.37
2023-04-15T22:45:50.871Z,12.23
2023-04-15T22:48:24.190Z,13.30
2023-04-15T22:50:57.233Z,13.03
2023-04-15T22:53:30.317Z,14.33
2023-04-15T22:56:03.549Z,13.83
2023-04-15T22:58:36.586Z,14.50
2023-04-15T23:01:11.184Z,13.93
2023-04-15T23:03:57.155Z,15.73
2023-04-15T23:06:37.524Z,16.90
2023-04-15T23:09:10.995Z,16.13
2023-04-15T23:11:44.270Z,16.97
2023-04-15T23:14:17.289Z,16.67
2023-04-15T23:16:51.630Z,14.23
2023-04-15T23:19:24.960Z,16.57
2023-04-15T23:21:58.055Z,15.03
2023-04-15T23:24:31.075Z,14.53
2023-04-15T23:27:04.177Z,16.07
2023-04-15T23:29:37.226Z,14.50
2023-04-15T23:32:11.610Z,15.20
2023-04-15T23:34:44.663Z,15.77
2023-04-15T23:37:18.947Z,14.13
2023-04-15T23:39:52.211Z,14.23
2023-04-15T23:42:25.950Z,14.60
2023-04-15T23:44:59.059Z,14.40
2023-04-15T23:47:33.463Z,14.40
2023-04-15T23:50:08.593Z,14.77
2023-04-15T23:52:41.604Z,14.07
2023-04-15T23:55:14.756Z,12.30
2023-04-15T23:57:48.149Z,14.20
